sensor_id;sensor_type;location;lat;lon;timestamp;temperature;humidity
21540;DHT22;10931;52.164;5.518;2023-02-20T00:02:23;17.80;63.60
21540;DHT22;10931;52.164;5.518;2023-02-20T00:04:56;17.80;63.60
21540;DHT22;10931;52.164;5.518;2023-02-20T00:07:22;17.80;63.60
21540;DHT22;10931;52.164;5.518;2023-02-20T00:09:48;17.80;63.70
21540;DHT22;10931;52.164;5.518;2023-02-20T00:12:25;17.80;63.60
21540;DHT22;10931;52.164;5.518;2023-02-20T00:15:02;17.80;63.70
21540;DHT22;10931;52.164;5.518;2023-02-20T00:17:38;17.80;63.60
21540;DHT22;10931;52.164;5.518;2023-02-20T00:20:17;17.80;63.60
21540;DHT22;10931;52.164;5.518;2023-02-20T00:22:43;17.80;63.60
21540;DHT22;10931;52.164;5.518;2023-02-20T00:25:28;17.80;63.60
21540;DHT22;10931;52.164;5.518;2023-02-20T00:27:54;17.80;63.60
21540;DHT22;10931;52.164;5.518;2023-02-20T00:30:33;17.80;63.60
21540;DHT22;10931;52.164;5.518;2023-02-20T00:33:04;17.80;63.60
21540;DHT22;10931;52.164;5.518;2023-02-20T00:35:53;17.80;63.60
21540;DHT22;10931;52.164;5.518;2023-02-20T00:38:19;17.80;63.60
21540;DHT22;10931;52.164;5.518;2023-02-20T00:41:04;17.70;63.60
21540;DHT22;10931;52.164;5.518;2023-02-20T00:43:29;17.70;63.60
21540;DHT22;10931;52.164;5.518;2023-02-20T00:45:56;17.70;63.60
21540;DHT22;10931;52.164;5.518;2023-02-20T00:48:24;17.70;63.50
21540;DHT22;10931;52.164;5.518;2023-02-20T00:50:52;17.70;63.60
21540;DHT22;10931;52.164;5.518;2023-02-20T00:53:20;17.70;63.60
21540;DHT22;10931;52.164;5.518;2023-02-20T00:55:57;17.70;63.60
21540;DHT22;10931;52.164;5.518;2023-02-20T00:58:27;17.70;64.40
21540;DHT22;10931;52.164;5.518;2023-02-20T01:01:03;17.70;63.60
21540;DHT22;10931;52.164;5.518;2023-02-20T01:03:32;17.70;63.60
21540;DHT22;10931;52.164;5.518;2023-02-20T01:06:00;17.70;63.60
21540;DHT22;10931;52.164;5.518;2023-02-20T01:08:26;17.70;63.60
21540;DHT22;10931;52.164;5.518;2023-02-20T01:11:13;17.70;63.60
21540;DHT22;10931;52.164;5.518;2023-02-20T01:13:59;17.70;63.60
21540;DHT22;10931;52.164;5.518;2023-02-20T01:16:33;17.70;63.60
21540;DHT22;10931;52.164;5.518;2023-02-20T01:19:01;17.60;63.50
21540;DHT22;10931;52.164;5.518;2023-02-20T01:21:30;17.60;63.50
21540;DHT22;10931;52.164;5.518;2023-02-20T01:23:55;17.60;63.50
21540;DHT22;10931;52.164;5.518;2023-02-20T01:26:21;17.60;63.50
21540;DHT22;10931;52.164;5.518;2023-02-20T01:28:52;17.60;63.50
21540;DHT22;10931;52.164;5.518;2023-02-20T01:31:21;17.60;63.50
21540;DHT22;10931;52.164;5.518;2023-02-20T01:33:49;17.60;63.50
21540;DHT22;10931;52.164;5.518;2023-02-20T01:36:15;17.60;63.50
21540;DHT22;10931;52.164;5.518;2023-02-20T01:38:50;17.60;63.90
21540;DHT22;10931;52.164;5.518;2023-02-20T01:41:16;17.60;63.50
21540;DHT22;10931;52.164;5.518;2023-02-20T01:43:43;17.60;63.50
21540;DHT22;10931;52.164;5.518;2023-02-20T01:49:15;17.60;63.50
21540;DHT22;10931;52.164;5.518;2023-02-20T01:51:54;17.60;64.40
21540;DHT22;10931;52.164;5.518;2023-02-20T01:54:23;17.50;63.50
21540;DHT22;10931;52.164;5.518;2023-02-20T01:56:51;17.50;63.50
21540;DHT22;10931;52.164;5.518;2023-02-20T01:59:19;17.50;63.50
21540;DHT22;10931;52.164;5.518;2023-02-20T02:01:46;17.50;63.50
21540;DHT22;10931;52.164;5.518;2023-02-20T02:04:16;17.50;63.50
21540;DHT22;10931;52.164;5.518;2023-02-20T02:06:46;17.60;63.50
21540;DHT22;10931;52.164;5.518;2023-02-20T02:12:14;17.50;63.50
21540;DHT22;10931;52.164;5.518;2023-02-20T02:14:40;17.50;63.50
21540;DHT22;10931;52.164;5.518;2023-02-20T02:17:16;17.50;63.50
21540;DHT22;10931;52.164;5.518;2023-02-20T02:27:51;17.50;63.50
21540;DHT22;10931;52.164;5.518;2023-02-20T02:33:31;17.50;63.50
21540;DHT22;10931;52.164;5.518;2023-02-20T02:39:07;17.50;63.50
21540;DHT22;10931;52.164;5.518;2023-02-20T02:50:24;17.40;63.40
21540;DHT22;10931;52.164;5.518;2023-02-20T02:52:51;17.40;63.40
21540;DHT22;10931;52.164;5.518;2023-02-20T02:55:28;17.40;63.40
21540;DHT22;10931;52.164;5.518;2023-02-20T02:57:55;17.40;63.40
21540;DHT22;10931;52.164;5.518;2023-02-20T03:00:24;17.40;63.40
21540;DHT22;10931;52.164;5.518;2023-02-20T03:03:10;17.40;63.50
21540;DHT22;10931;52.164;5.518;2023-02-20T03:08:29;17.40;63.40
21540;DHT22;10931;52.164;5.518;2023-02-20T03:11:04;17.40;63.50
21540;DHT22;10931;52.164;5.518;2023-02-20T03:13:34;17.30;63.40
21540;DHT22;10931;52.164;5.518;2023-02-20T03:16:21;17.30;63.40
21540;DHT22;10931;52.164;5.518;2023-02-20T03:18:51;17.30;63.40
21540;DHT22;10931;52.164;5.518;2023-02-20T03:21:21;17.30;63.40
21540;DHT22;10931;52.164;5.518;2023-02-20T03:23:54;17.30;63.40
21540;DHT22;10931;52.164;5.518;2023-02-20T03:26:27;17.30;63.40
21540;DHT22;10931;52.164;5.518;2023-02-20T03:29:06;17.30;63.40
21540;DHT22;10931;52.164;5.518;2023-02-20T03:31:45;17.30;63.50
21540;DHT22;10931;52.164;5.518;2023-02-20T03:34:18;17.30;63.40
21540;DHT22;10931;52.164;5.518;2023-02-20T03:37:07;17.30;63.40
21540;DHT22;10931;52.164;5.518;2023-02-20T03:39:57;17.30;63.40
21540;DHT22;10931;52.164;5.518;2023-02-20T03:42:47;17.30;63.40
21540;DHT22;10931;52.164;5.518;2023-02-20T03:45:35;17.30;63.40
21540;DHT22;10931;52.164;5.518;2023-02-20T03:50:46;17.30;63.40
21540;DHT22;10931;52.164;5.518;2023-02-20T03:53:12;17.30;63.40
21540;DHT22;10931;52.164;5.518;2023-02-20T03:55:39;17.30;63.50
21540;DHT22;10931;52.164;5.518;2023-02-20T03:58:07;17.30;63.40
21540;DHT22;10931;52.164;5.518;2023-02-20T04:00:39;17.30;63.50
21540;DHT22;10931;52.164;5.518;2023-02-20T04:03:12;17.20;63.40
21540;DHT22;10931;52.164;5.518;2023-02-20T04:05:42;17.30;63.50
21540;DHT22;10931;52.164;5.518;2023-02-20T04:08:21;17.30;63.50
21540;DHT22;10931;52.164;5.518;2023-02-20T04:10:59;17.20;63.40
21540;DHT22;10931;52.164;5.518;2023-02-20T04:13:25;17.20;63.40
21540;DHT22;10931;52.164;5.518;2023-02-20T04:15:52;17.20;63.40
21540;DHT22;10931;52.164;5.518;2023-02-20T04:18:19;17.20;63.40
21540;DHT22;10931;52.164;5.518;2023-02-20T04:20:49;17.20;63.40
21540;DHT22;10931;52.164;5.518;2023-02-20T04:23:19;17.20;63.40
21540;DHT22;10931;52.164;5.518;2023-02-20T04:26:00;17.20;63.40
21540;DHT22;10931;52.164;5.518;2023-02-20T04:28:28;17.20;63.40
21540;DHT22;10931;52.164;5.518;2023-02-20T04:30:57;17.20;63.40
21540;DHT22;10931;52.164;5.518;2023-02-20T04:33:24;17.20;63.40
21540;DHT22;10931;52.164;5.518;2023-02-20T04:35:49;17.20;63.40
21540;DHT22;10931;52.164;5.518;2023-02-20T04:38:15;17.20;63.50
21540;DHT22;10931;52.164;5.518;2023-02-20T04:40:48;17.20;63.40
21540;DHT22;10931;52.164;5.518;2023-02-20T04:43:15;17.20;63.40
21540;DHT22;10931;52.164;5.518;2023-02-20T04:45:42;17.20;63.50
21540;DHT22;10931;52.164;5.518;2023-02-20T04:48:07;17.20;63.40
21540;DHT22;10931;52.164;5.518;2023-02-20T04:50:34;17.20;63.40
21540;DHT22;10931;52.164;5.518;2023-02-20T04:53:00;17.20;63.40
21540;DHT22;10931;52.164;5.518;2023-02-20T04:55:26;17.20;63.40
21540;DHT22;10931;52.164;5.518;2023-02-20T04:57:53;17.10;63.40
21540;DHT22;10931;52.164;5.518;2023-02-20T05:00:21;17.20;63.50
21540;DHT22;10931;52.164;5.518;2023-02-20T05:02:47;17.20;64.30
21540;DHT22;10931;52.164;5.518;2023-02-20T05:05:21;17.10;63.40
21540;DHT22;10931;52.164;5.518;2023-02-20T05:07:48;17.20;63.50
21540;DHT22;10931;52.164;5.518;2023-02-20T05:10:18;17.20;63.50
21540;DHT22;10931;52.164;5.518;2023-02-20T05:12:44;17.20;63.50
21540;DHT22;10931;52.164;5.518;2023-02-20T05:15:10;17.20;63.50
21540;DHT22;10931;52.164;5.518;2023-02-20T05:17:37;17.10;63.40
21540;DHT22;10931;52.164;5.518;2023-02-20T05:20:04;17.10;63.50
21540;DHT22;10931;52.164;5.518;2023-02-20T05:22:30;17.10;63.40
21540;DHT22;10931;52.164;5.518;2023-02-20T05:24:56;17.10;63.50
21540;DHT22;10931;52.164;5.518;2023-02-20T05:27:23;17.10;63.40
21540;DHT22;10931;52.164;5.518;2023-02-20T05:29:51;17.10;63.50
21540;DHT22;10931;52.164;5.518;2023-02-20T05:32:18;17.10;63.50
21540;DHT22;10931;52.164;5.518;2023-02-20T05:34:45;17.10;63.50
21540;DHT22;10931;52.164;5.518;2023-02-20T05:37:12;17.10;63.50
21540;DHT22;10931;52.164;5.518;2023-02-20T05:39:41;17.10;63.50
21540;DHT22;10931;52.164;5.518;2023-02-20T05:42:08;17.10;63.50
21540;DHT22;10931;52.164;5.518;2023-02-20T05:44:34;17.10;63.50
21540;DHT22;10931;52.164;5.518;2023-02-20T05:47:00;17.10;63.50
21540;DHT22;10931;52.164;5.518;2023-02-20T05:49:26;17.10;63.50
21540;DHT22;10931;52.164;5.518;2023-02-20T05:51:55;17.10;63.50
21540;DHT22;10931;52.164;5.518;2023-02-20T05:54:23;17.10;63.50
21540;DHT22;10931;52.164;5.518;2023-02-20T05:56:50;17.00;63.50
21540;DHT22;10931;52.164;5.518;2023-02-20T05:59:19;17.10;63.50
21540;DHT22;10931;52.164;5.518;2023-02-20T06:01:48;17.10;63.50
21540;DHT22;10931;52.164;5.518;2023-02-20T06:04:19;17.00;63.50
21540;DHT22;10931;52.164;5.518;2023-02-20T06:06:44;17.00;63.50
21540;DHT22;10931;52.164;5.518;2023-02-20T06:09:11;17.00;63.50
21540;DHT22;10931;52.164;5.518;2023-02-20T06:11:38;17.10;63.50
21540;DHT22;10931;52.164;5.518;2023-02-20T06:14:05;17.10;63.50
21540;DHT22;10931;52.164;5.518;2023-02-20T06:16:31;17.00;63.50
21540;DHT22;10931;52.164;5.518;2023-02-20T06:18:57;17.00;63.50
21540;DHT22;10931;52.164;5.518;2023-02-20T06:21:25;17.00;63.50
21540;DHT22;10931;52.164;5.518;2023-02-20T06:23:52;17.00;63.70
21540;DHT22;10931;52.164;5.518;2023-02-20T06:26:22;17.00;63.50
21540;DHT22;10931;52.164;5.518;2023-02-20T06:28:48;17.00;63.50
21540;DHT22;10931;52.164;5.518;2023-02-20T06:31:26;17.00;63.50
21540;DHT22;10931;52.164;5.518;2023-02-20T06:33:53;17.00;63.50
21540;DHT22;10931;52.164;5.518;2023-02-20T06:36:27;17.00;63.50
21540;DHT22;10931;52.164;5.518;2023-02-20T06:38:53;17.00;63.50
21540;DHT22;10931;52.164;5.518;2023-02-20T06:41:20;17.00;63.60
21540;DHT22;10931;52.164;5.518;2023-02-20T06:43:46;17.00;63.50
21540;DHT22;10931;52.164;5.518;2023-02-20T06:46:15;17.00;63.50
21540;DHT22;10931;52.164;5.518;2023-02-20T06:48:45;17.00;63.50
21540;DHT22;10931;52.164;5.518;2023-02-20T06:54:30;17.00;63.50
21540;DHT22;10931;52.164;5.518;2023-02-20T06:56:59;17.00;63.50
21540;DHT22;10931;52.164;5.518;2023-02-20T06:59:28;17.00;63.60
21540;DHT22;10931;52.164;5.518;2023-02-20T07:01:53;17.00;63.60
21540;DHT22;10931;52.164;5.518;2023-02-20T07:04:23;16.90;63.50
21540;DHT22;10931;52.164;5.518;2023-02-20T07:06:51;17.00;63.70
21540;DHT22;10931;52.164;5.518;2023-02-20T07:09:17;17.00;63.60
21540;DHT22;10931;52.164;5.518;2023-02-20T07:11:48;16.90;64.30
21540;DHT22;10931;52.164;5.518;2023-02-20T07:14:23;17.00;63.60
21540;DHT22;10931;52.164;5.518;2023-02-20T07:16:48;16.90;63.60
21540;DHT22;10931;52.164;5.518;2023-02-20T07:19:14;17.00;63.60
21540;DHT22;10931;52.164;5.518;2023-02-20T07:21:40;16.90;63.50
21540;DHT22;10931;52.164;5.518;2023-02-20T07:24:06;17.00;63.70
21540;DHT22;10931;52.164;5.518;2023-02-20T07:26:31;16.90;63.60
21540;DHT22;10931;52.164;5.518;2023-02-20T07:28:58;17.00;63.70
21540;DHT22;10931;52.164;5.518;2023-02-20T07:31:25;16.90;63.60
21540;DHT22;10931;52.164;5.518;2023-02-20T07:33:51;17.00;63.70
21540;DHT22;10931;52.164;5.518;2023-02-20T07:36:20;16.90;63.70
21540;DHT22;10931;52.164;5.518;2023-02-20T07:38:54;16.90;63.60
21540;DHT22;10931;52.164;5.518;2023-02-20T07:41:23;16.90;63.70
21540;DHT22;10931;52.164;5.518;2023-02-20T07:43:48;16.90;63.60
21540;DHT22;10931;52.164;5.518;2023-02-20T07:46:17;16.90;63.70
21540;DHT22;10931;52.164;5.518;2023-02-20T07:48:43;16.90;63.60
21540;DHT22;10931;52.164;5.518;2023-02-20T07:51:11;16.90;63.70
21540;DHT22;10931;52.164;5.518;2023-02-20T07:53:37;16.90;63.70
21540;DHT22;10931;52.164;5.518;2023-02-20T07:56:06;16.90;63.70
21540;DHT22;10931;52.164;5.518;2023-02-20T07:58:55;16.90;63.70
21540;DHT22;10931;52.164;5.518;2023-02-20T08:01:23;16.90;63.70
21540;DHT22;10931;52.164;5.518;2023-02-20T08:03:50;16.90;63.70
21540;DHT22;10931;52.164;5.518;2023-02-20T08:06:21;16.90;63.70
21540;DHT22;10931;52.164;5.518;2023-02-20T08:08:48;16.90;63.70
21540;DHT22;10931;52.164;5.518;2023-02-20T08:11:15;16.90;63.70
21540;DHT22;10931;52.164;5.518;2023-02-20T08:13:44;16.90;63.70
21540;DHT22;10931;52.164;5.518;2023-02-20T08:16:11;16.90;63.70
21540;DHT22;10931;52.164;5.518;2023-02-20T08:18:37;16.90;63.70
21540;DHT22;10931;52.164;5.518;2023-02-20T08:21:05;16.90;63.80
21540;DHT22;10931;52.164;5.518;2023-02-20T08:23:34;16.90;63.80
21540;DHT22;10931;52.164;5.518;2023-02-20T08:26:03;16.90;63.80
21540;DHT22;10931;52.164;5.518;2023-02-20T08:28:29;16.90;63.80
21540;DHT22;10931;52.164;5.518;2023-02-20T08:30:54;16.90;63.80
21540;DHT22;10931;52.164;5.518;2023-02-20T08:33:38;16.90;63.90
21540;DHT22;10931;52.164;5.518;2023-02-20T08:36:04;16.90;63.90
21540;DHT22;10931;52.164;5.518;2023-02-20T08:38:37;16.90;63.90
21540;DHT22;10931;52.164;5.518;2023-02-20T08:41:06;16.90;63.90
21540;DHT22;10931;52.164;5.518;2023-02-20T08:43:39;16.90;63.90
21540;DHT22;10931;52.164;5.518;2023-02-20T08:46:10;16.90;63.90
21540;DHT22;10931;52.164;5.518;2023-02-20T08:48:37;16.90;63.90
21540;DHT22;10931;52.164;5.518;2023-02-20T08:51:03;16.90;63.90
21540;DHT22;10931;52.164;5.518;2023-02-20T08:53:29;16.90;63.90
21540;DHT22;10931;52.164;5.518;2023-02-20T08:55:58;16.90;63.90
21540;DHT22;10931;52.164;5.518;2023-02-20T08:58:24;16.90;64.00
21540;DHT22;10931;52.164;5.518;2023-02-20T09:00:53;16.90;63.90
21540;DHT22;10931;52.164;5.518;2023-02-20T09:03:31;16.90;63.90
21540;DHT22;10931;52.164;5.518;2023-02-20T09:06:05;16.90;63.90
21540;DHT22;10931;52.164;5.518;2023-02-20T09:08:34;16.90;63.90
21540;DHT22;10931;52.164;5.518;2023-02-20T09:11:03;16.90;63.90
21540;DHT22;10931;52.164;5.518;2023-02-20T09:13:45;16.90;63.90
21540;DHT22;10931;52.164;5.518;2023-02-20T09:19:16;16.90;63.90
21540;DHT22;10931;52.164;5.518;2023-02-20T09:21:53;16.90;63.90
21540;DHT22;10931;52.164;5.518;2023-02-20T09:24:24;16.90;63.90
21540;DHT22;10931;52.164;5.518;2023-02-20T09:26:55;16.90;63.90
21540;DHT22;10931;52.164;5.518;2023-02-20T09:29:21;16.90;63.90
21540;DHT22;10931;52.164;5.518;2023-02-20T09:31:49;16.90;63.90
21540;DHT22;10931;52.164;5.518;2023-02-20T09:34:17;16.90;64.00
21540;DHT22;10931;52.164;5.518;2023-02-20T09:36:43;16.90;64.00
21540;DHT22;10931;52.164;5.518;2023-02-20T09:39:11;16.90;64.00
21540;DHT22;10931;52.164;5.518;2023-02-20T09:49:44;16.90;64.00
21540;DHT22;10931;52.164;5.518;2023-02-20T09:52:15;16.90;64.00
21540;DHT22;10931;52.164;5.518;2023-02-20T09:55:04;16.90;64.10
21540;DHT22;10931;52.164;5.518;2023-02-20T09:57:44;16.90;64.10
21540;DHT22;10931;52.164;5.518;2023-02-20T10:00:30;16.90;64.10
21540;DHT22;10931;52.164;5.518;2023-02-20T10:06:30;16.90;64.20
21540;DHT22;10931;52.164;5.518;2023-02-20T10:08:57;16.90;64.20
21540;DHT22;10931;52.164;5.518;2023-02-20T10:11:54;16.90;64.20
21540;DHT22;10931;52.164;5.518;2023-02-20T10:15:09;16.90;64.20
21540;DHT22;10931;52.164;5.518;2023-02-20T10:20:45;16.90;64.20
21540;DHT22;10931;52.164;5.518;2023-02-20T10:25:58;16.90;64.20
21540;DHT22;10931;52.164;5.518;2023-02-20T10:28:25;16.90;64.20
21540;DHT22;10931;52.164;5.518;2023-02-20T10:31:15;16.90;64.30
21540;DHT22;10931;52.164;5.518;2023-02-20T10:34:02;16.90;64.20
21540;DHT22;10931;52.164;5.518;2023-02-20T10:36:43;16.90;64.20
21540;DHT22;10931;52.164;5.518;2023-02-20T10:39:16;16.90;64.30
21540;DHT22;10931;52.164;5.518;2023-02-20T10:41:58;16.90;64.30
21540;DHT22;10931;52.164;5.518;2023-02-20T10:44:35;16.90;64.30
21540;DHT22;10931;52.164;5.518;2023-02-20T10:47:19;16.90;64.30
21540;DHT22;10931;52.164;5.518;2023-02-20T10:49:57;16.90;64.30
21540;DHT22;10931;52.164;5.518;2023-02-20T10:52:34;16.90;64.30
21540;DHT22;10931;52.164;5.518;2023-02-20T10:55:17;16.90;64.30
21540;DHT22;10931;52.164;5.518;2023-02-20T10:58:19;17.00;64.40
21540;DHT22;10931;52.164;5.518;2023-02-20T11:00:47;16.90;64.30
21540;DHT22;10931;52.164;5.518;2023-02-20T11:03:19;17.00;64.50
21540;DHT22;10931;52.164;5.518;2023-02-20T11:05:53;17.00;64.40
21540;DHT22;10931;52.164;5.518;2023-02-20T11:08:19;16.90;64.30
21540;DHT22;10931;52.164;5.518;2023-02-20T11:10:53;17.00;64.50
21540;DHT22;10931;52.164;5.518;2023-02-20T11:13:22;16.90;64.40
21540;DHT22;10931;52.164;5.518;2023-02-20T11:15:51;16.90;64.40
21540;DHT22;10931;52.164;5.518;2023-02-20T11:18:32;17.00;64.50
21540;DHT22;10931;52.164;5.518;2023-02-20T11:20:59;16.90;65.20
21540;DHT22;10931;52.164;5.518;2023-02-20T11:23:42;16.90;64.50
21540;DHT22;10931;52.164;5.518;2023-02-20T11:26:32;16.90;64.40
21540;DHT22;10931;52.164;5.518;2023-02-20T11:31:36;17.00;64.50
21540;DHT22;10931;52.164;5.518;2023-02-20T11:34:04;16.90;64.50
21540;DHT22;10931;52.164;5.518;2023-02-20T11:36:36;16.90;64.50
21540;DHT22;10931;52.164;5.518;2023-02-20T11:39:12;17.00;64.50
21540;DHT22;10931;52.164;5.518;2023-02-20T11:41:40;17.00;64.50
21540;DHT22;10931;52.164;5.518;2023-02-20T11:46:34;17.00;64.60
21540;DHT22;10931;52.164;5.518;2023-02-20T11:49:03;17.00;64.60
21540;DHT22;10931;52.164;5.518;2023-02-20T11:51:36;17.00;64.60
21540;DHT22;10931;52.164;5.518;2023-02-20T11:54:22;17.00;64.60
21540;DHT22;10931;52.164;5.518;2023-02-20T11:59:38;17.00;64.60
21540;DHT22;10931;52.164;5.518;2023-02-20T12:02:25;17.00;64.60
21540;DHT22;10931;52.164;5.518;2023-02-20T12:05:14;17.00;64.60
21540;DHT22;10931;52.164;5.518;2023-02-20T12:08:00;17.00;64.60
21540;DHT22;10931;52.164;5.518;2023-02-20T12:10:37;17.00;64.60
21540;DHT22;10931;52.164;5.518;2023-02-20T12:13:15;17.00;64.60
21540;DHT22;10931;52.164;5.518;2023-02-20T12:15:56;17.00;64.60
21540;DHT22;10931;52.164;5.518;2023-02-20T12:18:52;17.00;64.60
21540;DHT22;10931;52.164;5.518;2023-02-20T12:21:23;17.00;64.60
21540;DHT22;10931;52.164;5.518;2023-02-20T12:24:07;17.00;64.60
21540;DHT22;10931;52.164;5.518;2023-02-20T12:26:54;17.00;64.70
21540;DHT22;10931;52.164;5.518;2023-02-20T12:35:34;17.20;65.40
21540;DHT22;10931;52.164;5.518;2023-02-20T12:41:08;17.40;65.70
21540;DHT22;10931;52.164;5.518;2023-02-20T12:51:58;17.80;66.10
21540;DHT22;10931;52.164;5.518;2023-02-20T12:54:49;17.90;66.20
21540;DHT22;10931;52.164;5.518;2023-02-20T12:57:46;18.00;66.30
21540;DHT22;10931;52.164;5.518;2023-02-20T13:00:33;18.10;66.30
21540;DHT22;10931;52.164;5.518;2023-02-20T13:03:13;18.30;66.30
21540;DHT22;10931;52.164;5.518;2023-02-20T13:05:49;18.40;66.30
21540;DHT22;10931;52.164;5.518;2023-02-20T13:08:30;18.40;66.30
21540;DHT22;10931;52.164;5.518;2023-02-20T13:11:03;18.50;66.20
21540;DHT22;10931;52.164;5.518;2023-02-20T13:17:28;18.70;66.20
21540;DHT22;10931;52.164;5.518;2023-02-20T13:20:09;18.90;66.20
21540;DHT22;10931;52.164;5.518;2023-02-20T13:22:56;19.00;66.10
21540;DHT22;10931;52.164;5.518;2023-02-20T13:25:41;19.10;66.10
21540;DHT22;10931;52.164;5.518;2023-02-20T13:30:46;19.20;66.00
21540;DHT22;10931;52.164;5.518;2023-02-20T13:33:41;19.40;66.00
21540;DHT22;10931;52.164;5.518;2023-02-20T13:42:27;19.60;65.70
21540;DHT22;10931;52.164;5.518;2023-02-20T13:45:01;19.60;65.60
21540;DHT22;10931;52.164;5.518;2023-02-20T13:47:34;19.70;65.60
21540;DHT22;10931;52.164;5.518;2023-02-20T13:50:31;19.70;65.40
21540;DHT22;10931;52.164;5.518;2023-02-20T13:53:01;19.70;65.40
21540;DHT22;10931;52.164;5.518;2023-02-20T13:55:32;19.70;65.30
21540;DHT22;10931;52.164;5.518;2023-02-20T13:58:10;19.70;65.30
21540;DHT22;10931;52.164;5.518;2023-02-20T14:00:57;19.70;65.30
21540;DHT22;10931;52.164;5.518;2023-02-20T14:03:33;19.70;65.30
21540;DHT22;10931;52.164;5.518;2023-02-20T14:06:37;19.70;65.30
21540;DHT22;10931;52.164;5.518;2023-02-20T14:09:26;19.70;65.30
21540;DHT22;10931;52.164;5.518;2023-02-20T14:12:04;19.70;65.20
21540;DHT22;10931;52.164;5.518;2023-02-20T14:14:42;19.80;65.30
21540;DHT22;10931;52.164;5.518;2023-02-20T14:17:20;19.70;65.30
21540;DHT22;10931;52.164;5.518;2023-02-20T14:19:58;19.70;65.20
21540;DHT22;10931;52.164;5.518;2023-02-20T14:22:29;19.70;65.10
21540;DHT22;10931;52.164;5.518;2023-02-20T14:27:40;19.70;65.10
21540;DHT22;10931;52.164;5.518;2023-02-20T14:32:50;19.70;65.10
21540;DHT22;10931;52.164;5.518;2023-02-20T14:35:42;19.70;65.10
21540;DHT22;10931;52.164;5.518;2023-02-20T14:40:58;19.70;65.00
21540;DHT22;10931;52.164;5.518;2023-02-20T14:43:38;19.70;65.00
21540;DHT22;10931;52.164;5.518;2023-02-20T14:46:20;19.70;65.90
21540;DHT22;10931;52.164;5.518;2023-02-20T14:49:09;19.70;65.00
21540;DHT22;10931;52.164;5.518;2023-02-20T14:51:36;19.70;65.00
21540;DHT22;10931;52.164;5.518;2023-02-20T14:57:40;19.70;65.00
21540;DHT22;10931;52.164;5.518;2023-02-20T15:03:23;19.70;65.10
21540;DHT22;10931;52.164;5.518;2023-02-20T15:06:23;19.70;65.10
21540;DHT22;10931;52.164;5.518;2023-02-20T15:09:02;19.70;65.20
21540;DHT22;10931;52.164;5.518;2023-02-20T15:11:29;19.70;65.20
21540;DHT22;10931;52.164;5.518;2023-02-20T15:14:00;19.70;65.30
21540;DHT22;10931;52.164;5.518;2023-02-20T15:16:31;19.70;65.30
21540;DHT22;10931;52.164;5.518;2023-02-20T15:19:44;19.70;65.30
21540;DHT22;10931;52.164;5.518;2023-02-20T15:22:35;19.70;65.40
21540;DHT22;10931;52.164;5.518;2023-02-20T15:25:45;19.80;65.40
21540;DHT22;10931;52.164;5.518;2023-02-20T15:28:25;19.70;65.40
21540;DHT22;10931;52.164;5.518;2023-02-20T15:33:37;19.80;65.50
21540;DHT22;10931;52.164;5.518;2023-02-20T15:36:05;19.80;65.50
21540;DHT22;10931;52.164;5.518;2023-02-20T15:38:39;19.80;65.60
21540;DHT22;10931;52.164;5.518;2023-02-20T15:41:30;19.80;65.60
21540;DHT22;10931;52.164;5.518;2023-02-20T15:44:07;19.80;65.60
21540;DHT22;10931;52.164;5.518;2023-02-20T15:46:54;19.80;65.60
21540;DHT22;10931;52.164;5.518;2023-02-20T15:49:44;19.80;65.70
21540;DHT22;10931;52.164;5.518;2023-02-20T15:52:21;19.80;65.70
21540;DHT22;10931;52.164;5.518;2023-02-20T15:55:00;19.80;65.70
21540;DHT22;10931;52.164;5.518;2023-02-20T15:57:54;19.80;65.70
21540;DHT22;10931;52.164;5.518;2023-02-20T16:00:37;19.80;65.70
21540;DHT22;10931;52.164;5.518;2023-02-20T16:03:09;19.80;65.70
21540;DHT22;10931;52.164;5.518;2023-02-20T16:05:48;19.80;65.70
21540;DHT22;10931;52.164;5.518;2023-02-20T16:08:42;19.90;65.70
21540;DHT22;10931;52.164;5.518;2023-02-20T16:11:55;19.90;65.70
21540;DHT22;10931;52.164;5.518;2023-02-20T16:14:28;19.90;65.80
21540;DHT22;10931;52.164;5.518;2023-02-20T16:17:17;19.90;65.70
21540;DHT22;10931;52.164;5.518;2023-02-20T16:22:44;19.90;65.70
21540;DHT22;10931;52.164;5.518;2023-02-20T16:25:30;19.90;65.80
21540;DHT22;10931;52.164;5.518;2023-02-20T16:28:24;19.90;66.60
21540;DHT22;10931;52.164;5.518;2023-02-20T16:30:52;19.90;65.70
21540;DHT22;10931;52.164;5.518;2023-02-20T16:33:20;19.90;65.70
21540;DHT22;10931;52.164;5.518;2023-02-20T16:35:50;19.90;65.70
21540;DHT22;10931;52.164;5.518;2023-02-20T16:38:24;19.90;65.70
21540;DHT22;10931;52.164;5.518;2023-02-20T16:40:59;19.90;65.70
21540;DHT22;10931;52.164;5.518;2023-02-20T16:47:41;19.90;65.80
21540;DHT22;10931;52.164;5.518;2023-02-20T16:50:15;19.90;65.80
21540;DHT22;10931;52.164;5.518;2023-02-20T16:52:45;19.90;65.70
21540;DHT22;10931;52.164;5.518;2023-02-20T17:02:48;19.80;65.50
21540;DHT22;10931;52.164;5.518;2023-02-20T17:05:24;19.90;65.60
21540;DHT22;10931;52.164;5.518;2023-02-20T17:07:59;19.80;65.40
21540;DHT22;10931;52.164;5.518;2023-02-20T17:10:39;19.80;65.40
21540;DHT22;10931;52.164;5.518;2023-02-20T17:25:52;19.70;65.30
21540;DHT22;10931;52.164;5.518;2023-02-20T17:28:39;19.70;65.30
21540;DHT22;10931;52.164;5.518;2023-02-20T17:31:05;19.70;65.30
21540;DHT22;10931;52.164;5.518;2023-02-20T17:33:30;19.80;65.40
21540;DHT22;10931;52.164;5.518;2023-02-20T17:35:59;19.70;65.30
21540;DHT22;10931;52.164;5.518;2023-02-20T17:38:25;19.70;65.30
21540;DHT22;10931;52.164;5.518;2023-02-20T17:40:50;19.70;65.30
21540;DHT22;10931;52.164;5.518;2023-02-20T17:43:17;19.70;65.30
21540;DHT22;10931;52.164;5.518;2023-02-20T17:45:47;19.70;65.30
21540;DHT22;10931;52.164;5.518;2023-02-20T17:48:12;19.60;65.20
21540;DHT22;10931;52.164;5.518;2023-02-20T17:50:46;19.60;65.20
21540;DHT22;10931;52.164;5.518;2023-02-20T17:53:11;19.60;65.20
21540;DHT22;10931;52.164;5.518;2023-02-20T17:55:55;19.60;65.30
21540;DHT22;10931;52.164;5.518;2023-02-20T17:58:29;19.60;65.30
21540;DHT22;10931;52.164;5.518;2023-02-20T18:01:15;19.60;65.30
21540;DHT22;10931;52.164;5.518;2023-02-20T18:10:00;19.50;65.10
21540;DHT22;10931;52.164;5.518;2023-02-20T18:12:38;19.50;65.10
21540;DHT22;10931;52.164;5.518;2023-02-20T18:15:34;19.50;65.20
21540;DHT22;10931;52.164;5.518;2023-02-20T18:18:06;19.50;65.20
21540;DHT22;10931;52.164;5.518;2023-02-20T18:20:32;19.50;65.10
21540;DHT22;10931;52.164;5.518;2023-02-20T18:23:06;19.40;65.10
21540;DHT22;10931;52.164;5.518;2023-02-20T18:28:38;19.40;65.10
21540;DHT22;10931;52.164;5.518;2023-02-20T18:31:15;19.40;65.10
21540;DHT22;10931;52.164;5.518;2023-02-20T18:36:48;19.40;65.10
21540;DHT22;10931;52.164;5.518;2023-02-20T18:39:15;19.40;65.20
21540;DHT22;10931;52.164;5.518;2023-02-20T18:42:01;19.40;65.10
21540;DHT22;10931;52.164;5.518;2023-02-20T18:48:41;19.30;65.00